Time;durP1;ratioP1;P1;durP2;ratioP2;P2;SDS_P1;SDS_P2;PMS_P1;PMS_P2;Temp;Humidity;BMP_temperature;BMP_pressure;BME280_temperature;BME280_humidity;BME280_pressure;Samples;Min_cycle;Max_cycle;Signal;HPM_P1;HPM_P2
2023/05/15 00:00:51;;;;;;;6.72;6.03;;;11.30;99.90;;;-144.05;80.57;56842.47;5033987;28;20034;-82
2023/05/15 00:03:17;;;;;;;7.78;6.82;;;11.30;99.90;;;-144.05;80.72;56867.94;5033537;28;20034;-82
2023/05/15 00:05:43;;;;;;;8.02;7.05;;;11.40;99.90;;;-144.05;80.66;56859.47;5033780;28;20030;-80
2023/05/15 00:08:09;;;;;;;8.38;7.20;;;11.40;99.90;;;-144.05;80.80;56859.47;5033321;28;20029;-83
2023/05/15 00:10:34;;;;;;;7.13;6.32;;;11.30;99.90;;;-144.05;80.52;56863.69;5015730;28;20049;-83
2023/05/15 00:13:00;;;;;;;11.55;7.22;;;11.30;99.90;;;-144.05;81.26;56887.06;5033618;28;20515;-81
2023/05/15 00:15:26;;;;;;;7.75;6.75;;;11.40;99.90;;;-144.05;81.24;56880.69;5015564;28;20067;-83
2023/05/15 00:17:52;;;;;;;10.75;7.40;;;11.40;99.90;;;-144.05;80.57;56870.06;5033414;28;20052;-83
2023/05/15 00:20:18;;;;;;;9.38;6.63;;;11.40;99.90;;;-144.05;80.32;56855.22;5034103;28;20033;-82
2023/05/15 00:22:44;;;;;;;7.88;6.40;;;11.40;99.90;;;-144.05;80.11;56836.09;5034224;28;20087;-81
2023/05/15 00:25:10;;;;;;;8.02;6.20;;;11.40;99.90;;;-144.05;79.75;56861.56;5017270;28;20029;-85
2023/05/15 00:27:36;;;;;;;7.40;6.60;;;11.40;99.90;;;-144.05;79.89;56863.69;5036380;28;20062;-85
2023/05/15 00:30:02;;;;;;;9.20;6.45;;;11.30;99.90;;;-144.05;79.94;56893.44;5024465;28;20097;-82
2023/05/15 00:32:28;;;;;;;7.82;6.38;;;11.30;99.90;;;-144.05;79.67;56867.94;5037652;28;20044;-82
2023/05/15 00:34:54;;;;;;;7.88;6.03;;;11.30;99.90;;;-144.05;79.47;56882.81;5050548;28;20030;-82
2023/05/15 00:37:19;;;;;;;8.20;6.57;;;11.20;99.90;;;-144.05;79.55;56863.69;5041563;28;20037;-82
2023/05/15 00:39:45;;;;;;;9.48;6.22;;;11.20;99.90;;;-144.05;79.49;56887.06;5017469;28;20072;-81
2023/05/15 00:42:13;;;;;;;13.65;7.15;;;11.20;99.90;;;-144.05;79.64;56891.31;5016776;28;20036;-82
2023/05/15 00:44:43;;;;;;;9.43;6.50;;;11.10;99.90;;;-144.05;79.60;56865.81;5034197;28;20029;-83
2023/05/15 00:47:11;;;;;;;7.70;6.60;;;11.10;99.90;;;-144.05;79.85;56853.09;5034390;28;20025;-82
2023/05/15 00:49:38;;;;;;;10.23;6.95;;;11.10;99.90;;;-144.05;79.92;56870.06;5016533;28;20116;-83
2023/05/15 00:52:07;;;;;;;8.23;6.75;;;11.10;99.90;;;-144.05;79.89;56876.44;5034362;28;20068;-83
2023/05/15 00:54:34;;;;;;;9.82;7.13;;;11.10;99.90;;;-144.05;80.21;56872.19;5033878;28;20017;-84
2023/05/15 00:57:04;;;;;;;7.97;6.07;;;11.10;99.90;;;-144.05;80.20;56878.56;5034233;28;20037;-83
2023/05/15 00:59:32;;;;;;;7.85;6.72;;;11.10;99.90;;;-144.05;80.04;56865.81;5033600;28;20017;-83
2023/05/15 01:01:58;;;;;;;7.72;6.78;;;11.10;99.90;;;-144.05;80.56;56846.72;5033850;28;20029;-83
2023/05/15 01:04:24;;;;;;;9.23;7.00;;;11.10;99.90;;;-144.05;80.04;56878.56;5015386;28;20409;-82
2023/05/15 01:06:53;;;;;;;9.50;7.15;;;11.10;99.90;;;-144.05;79.64;56865.81;5032870;28;20021;-80
2023/05/15 01:09:24;;;;;;;9.68;7.40;;;11.10;99.90;;;-144.05;79.72;56878.56;5033301;28;20513;-82
2023/05/15 01:11:54;;;;;;;10.70;6.93;;;11.10;99.90;;;-144.05;79.34;56867.94;5015488;28;20057;-83
2023/05/15 01:14:20;;;;;;;7.70;6.65;;;11.10;99.90;;;-144.05;79.44;56855.22;5016147;28;20034;-83
2023/05/15 01:16:46;;;;;;;7.68;6.43;;;11.00;99.90;;;-144.05;79.47;56876.44;5022551;28;20039;-81
2023/05/15 01:19:11;;;;;;;10.40;7.35;;;10.90;99.90;;;-144.05;79.89;56874.31;5038079;28;20021;-77
2023/05/15 01:21:37;;;;;;;10.93;7.40;;;11.00;99.90;;;-144.05;80.27;56867.94;5056448;28;20127;-77
2023/05/15 01:24:45;;;;;;;11.98;8.10;;;11.00;99.90;;;-144.05;79.60;56870.06;5055144;28;20037;-84
2023/05/15 01:27:34;;;;;;;11.40;7.25;;;11.00;99.90;;;-144.05;79.66;56872.19;5014658;28;20034;-82
2023/05/15 01:30:29;;;;;;;9.10;7.20;;;10.90;99.90;;;-144.05;79.73;56853.09;5015256;28;20025;-82
2023/05/15 01:33:12;;;;;;;8.75;6.93;;;10.90;99.90;;;-144.05;79.82;56855.22;5015571;28;20039;-80
2023/05/15 01:35:49;;;;;;;9.45;7.95;;;10.80;99.90;;;-144.05;80.26;56857.34;5014498;28;20056;-82
2023/05/15 01:38:45;;;;;;;9.25;7.75;;;10.80;99.90;;;-144.05;80.64;56861.56;5032960;28;20025;-84
2023/05/15 01:41:25;;;;;;;11.00;7.72;;;10.90;99.90;;;-144.05;80.27;56861.56;5031904;28;20032;-82
2023/05/15 01:44:16;;;;;;;11.40;7.25;;;10.90;99.90;;;-144.05;79.97;56878.56;5014749;28;20405;-84
2023/05/15 01:46:49;;;;;;;8.93;7.63;;;10.90;99.90;;;-144.05;80.24;56870.06;5032676;28;20029;-81
2023/05/15 01:49:22;;;;;;;8.02;6.50;;;10.90;99.90;;;-144.05;80.20;56850.97;5032366;28;20037;-82
2023/05/15 01:51:58;;;;;;;11.63;6.82;;;10.80;99.90;;;-144.05;80.09;56884.94;5032282;28;20041;-83
2023/05/15 01:54:27;;;;;;;10.60;7.20;;;10.70;99.90;;;-144.05;80.24;56857.34;5033550;28;20116;-84
2023/05/15 01:56:57;;;;;;;8.05;7.25;;;10.70;99.90;;;-144.05;80.49;56863.69;5033768;28;20029;-83
2023/05/15 01:59:26;;;;;;;8.05;6.80;;;10.60;99.90;;;-144.05;80.24;56874.31;5019501;28;20091;-82
2023/05/15 02:01:52;;;;;;;9.13;7.03;;;10.60;99.90;;;-144.05;80.51;56880.69;5036798;28;20041;-82
2023/05/15 02:04:21;;;;;;;12.25;8.15;;;10.60;99.90;;;-144.05;81.05;56876.44;5018907;28;20041;-83
2023/05/15 02:06:49;;;;;;;10.00;7.15;;;10.60;99.90;;;-144.05;80.86;56876.44;5037563;28;20392;-81
2023/05/15 02:09:18;;;;;;;9.57;7.40;;;10.60;99.90;;;-144.05;80.44;56887.06;5017876;28;20033;-81
2023/05/15 02:11:45;;;;;;;8.60;6.78;;;10.50;99.90;;;-144.05;80.47;56859.47;5035286;28;20120;-82
2023/05/15 02:14:16;;;;;;;8.80;6.78;;;10.50;99.90;;;-144.05;80.67;56874.31;5035445;28;20032;-82
2023/05/15 02:16:42;;;;;;;9.65;7.22;;;10.50;99.90;;;-144.05;80.91;56887.06;5035609;28;20374;-82
2023/05/15 02:19:08;;;;;;;9.57;7.25;;;10.40;99.90;;;-144.05;80.67;56863.69;5035511;28;20068;-82
2023/05/15 02:21:34;;;;;;;11.18;8.25;;;10.30;99.90;;;-144.05;81.22;56878.56;5035512;28;20209;-81
2023/05/15 02:24:00;;;;;;;10.93;7.95;;;10.30;99.90;;;-144.05;81.46;56874.31;5033425;28;20037;-81
2023/05/15 02:27:01;;;;;;;9.40;8.00;;;10.20;99.90;;;-144.05;81.27;56874.31;5041679;28;20043;-79
2023/05/15 02:29:56;;;;;;;13.02;8.15;;;10.20;99.90;;;-144.05;81.62;56889.19;5059514;28;20028;-78
2023/05/15 02:32:58;;;;;;;10.32;8.52;;;10.20;99.90;;;-144.05;81.82;56884.94;5048159;28;20088;-81
2023/05/15 02:35:45;;;;;;;10.82;8.75;;;10.20;99.90;;;-144.05;81.84;56884.94;5039373;28;20034;-84
2023/05/15 02:38:19;;;;;;;10.23;8.30;;;10.30;99.90;;;-144.05;81.90;56887.06;5038271;28;20035;-82
2023/05/15 02:40:49;;;;;;;12.05;8.38;;;10.20;99.90;;;-144.05;81.91;56889.19;5035433;28;20531;-81
2023/05/15 02:43:18;;;;;;;12.25;8.85;;;10.10;99.90;;;-144.05;82.13;56893.44;5035317;28;20037;-82
2023/05/15 02:45:46;;;;;;;10.70;8.68;;;10.10;99.90;;;-144.05;81.94;56867.94;5035161;28;20021;-83
2023/05/15 02:48:14;;;;;;;9.32;8.32;;;10.10;99.90;;;-144.05;81.92;56876.44;5017343;28;20033;-82
2023/05/15 02:50:41;;;;;;;13.73;8.57;;;10.00;99.90;;;-144.05;82.31;56872.19;5034947;28;20484;-81
2023/05/15 02:53:08;;;;;;;13.02;9.90;;;10.00;99.90;;;-144.05;82.48;56867.94;5035000;28;20040;-82
2023/05/15 02:55:35;;;;;;;12.18;8.82;;;10.00;99.90;;;-144.05;82.49;56874.31;5029742;28;20030;-80
2023/05/15 02:58:03;;;;;;;12.35;9.02;;;10.00;99.90;;;-144.05;82.39;56878.56;5041937;28;20048;-82
2023/05/15 03:00:29;;;;;;;12.98;9.02;;;9.90;99.90;;;-144.05;82.46;56882.81;5053094;28;20032;-82
2023/05/15 03:02:55;;;;;;;17.23;11.18;;;9.80;99.90;;;-144.05;82.54;56857.34;5039011;28;20069;-81
2023/05/15 03:05:21;;;;;;;14.40;10.05;;;9.80;99.90;;;-144.05;82.77;56865.81;5035950;28;20064;-83
2023/05/15 03:07:47;;;;;;;14.05;10.43;;;9.80;99.90;;;-144.05;83.19;56874.31;5035474;28;20108;-83
2023/05/15 03:10:13;;;;;;;12.80;10.38;;;9.80;99.90;;;-144.05;83.57;56850.97;5035748;28;20029;-83
2023/05/15 03:12:39;;;;;;;16.13;12.43;;;9.80;99.90;;;-144.05;84.42;56861.56;5035652;28;20029;-83
2023/05/15 03:15:07;;;;;;;14.43;11.23;;;9.80;99.90;;;-144.05;83.74;56874.31;5035337;28;20462;-83
2023/05/15 03:17:33;;;;;;;14.00;11.13;;;9.80;99.90;;;-144.05;83.44;56882.81;5017572;28;20401;-84
2023/05/15 03:19:59;;;;;;;15.65;10.60;;;9.80;99.90;;;-144.05;83.38;56891.31;5017327;28;20029;-82
2023/05/15 03:22:24;;;;;;;12.65;9.50;;;9.80;99.90;;;-144.05;83.31;56889.19;5017013;28;20401;-82
2023/05/15 03:24:51;;;;;;;12.45;9.45;;;9.70;99.90;;;-144.05;82.96;56874.31;5016940;28;20040;-84
2023/05/15 03:27:17;;;;;;;14.50;9.73;;;9.60;99.90;;;-144.05;83.32;56889.19;5034731;28;20072;-83
2023/05/15 03:29:42;;;;;;;16.45;10.90;;;9.50;99.90;;;-144.05;83.42;56878.56;5034670;28;20033;-83
2023/05/15 03:32:08;;;;;;;18.25;12.80;;;9.50;99.90;;;-144.05;83.80;56887.06;5034860;28;20470;-82
2023/05/15 03:34:34;;;;;;;12.85;9.40;;;9.50;99.90;;;-144.05;83.64;56887.06;5034774;28;20026;-83
2023/05/15 03:37:00;;;;;;;23.40;15.10;;;9.60;99.90;;;-144.05;84.77;56872.19;5034762;28;20503;-82
2023/05/15 03:39:26;;;;;;;27.70;17.42;;;9.60;99.90;;;-144.05;84.51;56897.69;5034952;28;20103;-81
2023/05/15 03:41:52;;;;;;;36.97;20.58;;;9.70;99.90;;;-144.05;85.25;56889.19;5034937;28;20029;-83
2023/05/15 03:44:17;;;;;;;48.63;27.52;;;9.90;99.90;;;-144.05;86.29;56880.69;5034484;28;20033;-82
2023/05/15 03:46:43;;;;;;;61.35;32.63;;;10.20;99.90;;;-144.05;85.53;56855.22;5016606;28;20481;-82
2023/05/15 03:49:09;;;;;;;72.70;35.42;;;10.40;99.90;;;-144.05;86.48;56865.81;5034406;28;20089;-83
2023/05/15 03:51:35;;;;;;;81.00;38.35;;;10.70;99.90;;;-144.05;87.43;56895.56;5034441;28;20104;-83
2023/05/15 03:54:04;;;;;;;71.05;36.50;;;10.90;99.90;;;-144.05;86.67;56891.31;5034349;28;20432;-83
2023/05/15 03:56:31;;;;;;;82.63;40.10;;;11.10;99.90;;;-144.05;86.57;56861.56;5016361;28;20124;-83
2023/05/15 03:58:58;;;;;;;78.85;37.42;;;11.20;99.90;;;-144.05;87.32;56848.84;5034346;28;20052;-83
2023/05/15 04:01:24;;;;;;;83.28;39.33;;;11.40;99.90;;;-144.05;87.60;56838.22;5016414;28;20481;-82
2023/05/15 04:03:50;;;;;;;79.18;38.03;;;11.50;99.90;;;-144.05;87.35;56880.69;5036224;28;20116;-84
2023/05/15 04:06:16;;;;;;;75.15;35.70;;;11.60;99.90;;;-144.05;87.45;56853.09;5036651;28;20080;-83
2023/05/15 04:08:42;;;;;;;75.15;39.17;;;11.60;99.90;;;-144.05;87.62;56861.56;5036406;28;20022;-82
2023/05/15 04:11:10;;;;;;;75.80;36.60;;;11.70;99.90;;;-144.05;87.50;56889.19;5018422;28;20048;-81
2023/05/15 04:13:36;;;;;;;70.07;37.50;;;11.70;99.90;;;-144.05;87.38;56865.81;5037185;28;20093;-82
2023/05/15 04:16:03;;;;;;;68.68;37.92;;;11.80;99.90;;;-144.05;87.62;56872.19;5036336;28;20484;-84
2023/05/15 04:18:28;;;;;;;69.97;37.65;;;11.80;99.90;;;-144.05;88.07;56857.34;5035819;28;20033;-82
2023/05/15 04:20:54;;;;;;;72.40;39.00;;;11.90;99.90;;;-144.05;87.87;56840.34;5016859;28;20040;-83
2023/05/15 04:23:20;;;;;;;77.13;38.95;;;11.90;99.90;;;-144.05;87.80;56850.97;5035973;28;20389;-83
2023/05/15 04:25:47;;;;;;;79.05;42.83;;;12.00;99.90;;;-144.05;87.63;56874.31;5041555;22;20084;-77
2023/05/15 04:28:14;;;;;;;77.07;41.17;;;12.00;99.90;;;-144.05;87.40;56878.56;5015322;28;20021;-77
2023/05/15 04:30:40;;;;;;;75.07;39.40;;;12.00;99.90;;;-144.05;87.14;56861.56;5012567;28;20109;-77
2023/05/15 04:33:06;;;;;;;83.35;42.42;;;12.10;99.90;;;-144.05;87.23;56861.56;5012113;28;20401;-78
2023/05/15 04:35:33;;;;;;;75.15;43.85;;;12.20;99.90;;;-144.05;87.25;56870.06;5013524;28;20168;-79
2023/05/15 04:37:58;;;;;;;74.38;41.28;;;12.20;99.90;;;-144.05;87.22;56859.47;5015485;28;20037;-78
2023/05/15 04:40:24;;;;;;;73.20;39.78;;;12.30;99.90;;;-144.05;86.94;56861.56;5000090;28;20057;-80
2023/05/15 04:42:50;;;;;;;82.00;41.83;;;12.30;99.90;;;-144.05;86.94;56872.19;5018921;28;20030;-78
2023/05/15 04:45:16;;;;;;;71.38;40.22;;;12.30;99.90;;;-144.05;86.95;56872.19;5017523;28;20109;-79
2023/05/15 04:47:42;;;;;;;82.32;44.33;;;12.40;99.90;;;-144.05;86.55;56825.47;5001892;28;20084;-78
2023/05/15 04:50:08;;;;;;;78.65;45.00;;;12.40;99.90;;;-144.05;86.37;56891.31;5014881;28;20053;-78
2023/05/15 04:52:34;;;;;;;85.72;46.70;;;12.50;99.90;;;-144.05;86.04;56861.56;5014768;28;20497;-78
2023/05/15 04:55:00;;;;;;;86.95;46.05;;;12.50;99.90;;;-144.05;85.87;56870.06;5013854;28;20037;-77
2023/05/15 04:57:26;;;;;;;76.20;45.25;;;12.50;99.90;;;-144.05;85.44;56874.31;4995812;28;20496;-78
2023/05/15 04:59:52;;;;;;;87.07;46.80;;;12.60;99.90;;;-144.05;85.74;56895.56;5013493;28;20034;-78
2023/05/15 05:02:22;;;;;;;86.55;46.13;;;12.60;99.90;;;-144.05;85.46;56861.56;4995659;28;20029;-78
2023/05/15 05:04:49;;;;;;;86.82;47.35;;;12.70;99.90;;;-144.05;84.77;56884.94;5012861;28;20104;-76
2023/05/15 05:07:14;;;;;;;99.50;50.65;;;12.70;99.90;;;-144.05;84.51;56846.72;5013075;28;20029;-78
2023/05/15 05:09:40;;;;;;;97.25;51.30;;;12.70;99.90;;;-144.05;84.33;56870.06;5012891;28;20022;-77
2023/05/15 05:12:08;;;;;;;102.25;49.30;;;12.80;99.90;;;-144.05;83.86;56848.84;4995826;28;20048;-75
2023/05/15 05:14:34;;;;;;;107.07;53.63;;;12.70;99.90;;;-144.05;83.64;56836.09;5013624;28;20029;-78
2023/05/15 05:17:00;;;;;;;100.85;51.33;;;12.80;99.90;;;-144.05;82.48;56848.84;4995416;28;20053;-79
2023/05/15 05:19:29;;;;;;;104.57;51.55;;;12.80;99.90;;;-144.05;81.73;56855.22;5012956;28;20263;-78
2023/05/15 05:21:57;;;;;;;105.78;51.92;;;12.90;99.90;;;-144.05;81.72;56855.22;5013581;28;20026;-78
2023/05/15 05:24:23;;;;;;;116.68;55.63;;;12.90;99.90;;;-144.05;81.42;56865.81;5013209;28;20041;-77
2023/05/15 05:26:49;;;;;;;113.10;53.10;;;13.00;99.90;;;-144.05;80.47;56861.56;5013512;28;20022;-78
2023/05/15 05:29:15;;;;;;;111.78;54.58;;;12.90;99.90;;;-144.05;80.21;56853.09;5013529;28;20037;-77
2023/05/15 05:31:41;;;;;;;103.65;52.22;;;12.90;99.90;;;-144.05;79.93;56863.69;5017277;28;20446;-78
2023/05/15 05:34:08;;;;;;;110.07;52.00;;;13.00;99.90;;;-144.05;79.47;56880.69;5020467;28;20477;-78
2023/05/15 05:36:35;;;;;;;108.13;52.05;;;13.10;99.90;;;-144.05;79.00;56861.56;5019385;28;20433;-78
2023/05/15 05:39:03;;;;;;;112.05;52.83;;;13.10;99.90;;;-144.05;78.67;56874.31;5018226;28;20555;-79
2023/05/15 05:41:29;;;;;;;112.25;57.25;;;13.10;99.90;;;-144.05;78.87;56887.06;5001071;28;20401;-77
2023/05/15 05:43:55;;;;;;;111.43;54.47;;;13.10;99.90;;;-144.05;78.78;56840.34;5018961;28;20026;-76
2023/05/15 05:46:21;;;;;;;119.18;56.55;;;13.10;99.90;;;-144.05;78.67;56889.19;5019489;28;20524;-79
2023/05/15 05:48:47;;;;;;;114.57;56.78;;;13.20;99.90;;;-144.05;78.36;56872.19;5019203;28;20442;-76
2023/05/15 05:51:13;;;;;;;112.85;54.97;;;13.20;99.90;;;-144.05;78.42;56863.69;5001147;28;20029;-77
2023/05/15 05:53:39;;;;;;;101.82;53.88;;;13.20;99.90;;;-144.05;77.77;56857.34;5017755;28;20030;-78
2023/05/15 05:56:07;;;;;;;119.13;57.35;;;13.20;99.90;;;-144.05;77.81;56878.56;5017698;28;20104;-78
2023/05/15 05:58:33;;;;;;;107.78;53.13;;;13.20;99.90;;;-144.05;77.66;56874.31;5000304;28;20030;-76
2023/05/15 06:00:59;;;;;;;114.65;57.88;;;13.30;99.90;;;-144.05;76.86;56863.69;5000879;28;20485;-76
2023/05/15 06:03:26;;;;;;;102.45;54.13;;;13.30;99.90;;;-144.05;76.92;56870.06;5018443;28;20370;-77
2023/05/15 06:05:52;;;;;;;108.78;53.50;;;13.40;99.90;;;-144.05;76.65;56893.44;5017921;28;20033;-78
2023/05/15 06:08:19;;;;;;;103.55;53.72;;;13.50;99.90;;;-144.05;76.32;56893.44;5017807;28;20022;-76
2023/05/15 06:10:47;;;;;;;99.05;54.95;;;13.50;99.90;;;-144.05;75.92;56872.19;5017473;28;20076;-79
2023/05/15 06:13:13;;;;;;;91.82;49.45;;;13.50;99.90;;;-144.05;75.94;56861.56;5017057;28;20025;-78
2023/05/15 06:15:40;;;;;;;101.32;53.47;;;13.50;99.90;;;-144.05;75.73;56872.19;5017355;28;20044;-78
2023/05/15 06:18:06;;;;;;;100.85;53.40;;;13.50;99.90;;;-144.05;75.45;56859.47;5017564;28;20374;-78
2023/05/15 06:20:33;;;;;;;94.63;53.45;;;13.50;99.90;;;-144.05;74.42;56876.44;5000399;28;20030;-79
2023/05/15 06:22:59;;;;;;;97.68;54.63;;;13.40;99.90;;;-144.05;74.91;56857.34;5020089;28;20493;-80
2023/05/15 06:25:26;;;;;;;99.93;55.17;;;13.30;99.90;;;-144.05;74.94;56880.69;5015285;28;20037;-78
2023/05/15 06:27:52;;;;;;;98.18;55.45;;;13.20;99.90;;;-144.05;75.40;56884.94;4997659;28;20458;-77
2023/05/15 06:30:18;;;;;;;92.47;52.53;;;13.30;99.90;;;-144.05;75.73;56857.34;5015260;28;20057;-77
2023/05/15 06:32:45;;;;;;;93.38;52.88;;;13.30;99.90;;;-144.05;75.21;56865.81;5015740;28;20034;-78
2023/05/15 06:35:11;;;;;;;96.35;55.38;;;13.50;99.90;;;-144.05;74.41;56859.47;5015942;28;20304;-77
2023/05/15 06:37:37;;;;;;;93.40;57.30;;;13.60;99.90;;;-144.05;73.28;56846.72;5015953;28;20030;-79
2023/05/15 06:40:05;;;;;;;97.55;56.58;;;13.70;99.90;;;-144.05;73.75;56878.56;5015885;28;20087;-79
2023/05/15 06:42:31;;;;;;;89.40;53.85;;;13.60;99.90;;;-144.05;74.39;56876.44;5016488;28;20452;-77
2023/05/15 06:44:58;;;;;;;98.50;53.67;;;13.50;99.90;;;-144.05;74.36;56891.31;5017480;28;20037;-77
2023/05/15 06:47:24;;;;;;;89.05;53.08;;;13.50;99.90;;;-144.05;74.22;56853.09;5017600;28;20029;-78
2023/05/15 06:49:50;;;;;;;84.45;51.13;;;13.50;99.90;;;-144.05;73.89;56863.69;5017633;28;20026;-77
2023/05/15 06:52:16;;;;;;;81.82;48.95;;;13.60;99.90;;;-144.05;74.08;56878.56;5017719;28;20095;-79
2023/05/15 06:54:42;;;;;;;85.43;49.33;;;13.60;99.90;;;-144.05;74.13;56861.56;5017572;28;20022;-77
2023/05/15 06:57:08;;;;;;;72.57;46.65;;;13.60;99.90;;;-144.05;73.85;56870.06;5000495;28;20117;-76
2023/05/15 06:59:34;;;;;;;75.50;46.42;;;13.70;99.90;;;-144.05;73.20;56855.22;5018242;28;20036;-79
2023/05/15 07:02:02;;;;;;;70.22;44.95;;;13.80;99.90;;;-144.05;71.52;56867.94;5016897;28;20025;-76
2023/05/15 07:04:29;;;;;;;69.03;43.35;;;13.90;99.90;;;-144.05;71.11;56865.81;5017787;28;20482;-77
2023/05/15 07:06:56;;;;;;;65.90;42.63;;;14.00;99.90;;;-144.05;70.23;56859.47;5016989;28;20048;-79
2023/05/15 07:09:23;;;;;;;61.90;41.30;;;14.20;99.90;;;-144.05;69.49;56887.06;4999981;28;20037;-78
2023/05/15 07:11:48;;;;;;;63.20;38.72;;;14.40;99.90;;;-144.05;68.39;56878.56;5017814;28;20365;-78
2023/05/15 07:14:14;;;;;;;58.53;38.78;;;14.60;99.90;;;-144.05;67.58;56870.06;5017254;28;20030;-78
2023/05/15 07:16:40;;;;;;;66.10;40.53;;;14.80;99.90;;;-144.05;66.78;56863.69;4999415;28;20049;-76
2023/05/15 07:19:08;;;;;;;61.65;41.45;;;15.00;99.90;;;-144.05;66.38;56880.69;5016276;28;20034;-75
2023/05/15 07:21:34;;;;;;;60.97;37.28;;;15.10;99.90;;;-144.05;66.00;56884.94;5016457;28;20033;-77
2023/05/15 07:24:00;;;;;;;63.50;40.08;;;15.40;99.90;;;-144.05;65.18;56853.09;4998505;28;20053;-79
2023/05/15 07:26:26;;;;;;;59.60;39.10;;;15.70;99.90;;;-144.05;63.69;56878.56;5016520;28;20034;-76
2023/05/15 07:28:52;;;;;;;63.70;40.40;;;16.20;99.90;;;-144.05;61.56;56878.56;5014885;28;20485;-78
2023/05/15 07:31:19;;;;;;;67.50;43.92;;;16.10;99.90;;;-144.05;62.64;56887.06;4999523;28;20482;-77
2023/05/15 07:33:45;;;;;;;65.90;43.92;;;15.90;99.90;;;-144.05;63.25;56882.81;5016280;28;20105;-78
2023/05/15 07:36:11;;;;;;;74.15;46.53;;;15.80;99.90;;;-144.05;63.50;56908.31;4997922;28;20319;-80
2023/05/15 07:38:37;;;;;;;70.60;45.75;;;15.80;99.90;;;-144.05;63.79;56895.56;5015346;28;20040;-78
2023/05/15 07:41:02;;;;;;;70.97;44.78;;;15.80;99.90;;;-144.05;63.64;56865.81;5014296;28;20105;-75
2023/05/15 07:43:28;;;;;;;69.32;44.15;;;15.60;99.90;;;-144.05;64.23;56870.06;4996171;28;20488;-77
2023/05/15 07:45:54;;;;;;;75.55;47.97;;;15.50;99.90;;;-144.05;64.35;56889.19;4995942;28;20036;-76
2023/05/15 07:48:20;;;;;;;72.60;47.80;;;15.40;99.90;;;-144.05;64.76;56887.06;5014848;28;20049;-77
2023/05/15 07:50:47;;;;;;;79.53;48.95;;;15.30;99.90;;;-144.05;65.32;56887.06;4996630;28;20030;-76
2023/05/15 07:53:15;;;;;;;82.97;51.00;;;15.30;99.90;;;-144.05;65.39;56880.69;5013424;28;20478;-75
2023/05/15 07:55:43;;;;;;;88.18;51.95;;;15.20;99.90;;;-144.05;66.24;56891.31;5013603;28;20103;-78
2023/05/15 07:58:08;;;;;;;88.32;51.70;;;15.10;99.90;;;-144.05;65.73;56870.06;5014452;28;20408;-77
2023/05/15 08:00:35;;;;;;;74.70;47.50;;;15.00;99.90;;;-144.05;66.18;56889.19;5014768;28;20140;-76
2023/05/15 08:03:01;;;;;;;75.72;50.13;;;15.00;99.90;;;-144.05;66.44;56891.31;5014978;28;20036;-79
2023/05/15 08:05:28;;;;;;;71.68;45.95;;;14.90;99.90;;;-144.05;66.02;56878.56;5015110;28;20030;-80
2023/05/15 08:07:55;;;;;;;73.50;46.63;;;15.00;99.90;;;-144.05;65.42;56893.44;5014702;28;20030;-79
2023/05/15 08:10:22;;;;;;;68.88;47.50;;;15.00;99.90;;;-144.05;65.51;56887.06;5013830;28;20389;-80
2023/05/15 08:12:49;;;;;;;72.90;46.72;;;14.90;99.90;;;-144.05;65.63;56867.94;5015261;28;20053;-79
2023/05/15 08:15:15;;;;;;;67.97;45.53;;;15.00;99.90;;;-144.05;64.49;56878.56;5015092;28;20429;-77
2023/05/15 08:17:42;;;;;;;68.68;45.58;;;15.30;99.90;;;-144.05;61.86;56872.19;5015318;28;20072;-77
2023/05/15 08:20:09;;;;;;;64.75;43.85;;;15.60;99.90;;;-144.05;60.40;56882.81;4997923;28;20025;-76
2023/05/15 08:22:35;;;;;;;62.25;42.13;;;15.60;99.90;;;-144.05;59.59;56901.94;5014417;28;20524;-77
2023/05/15 08:25:02;;;;;;;66.38;44.70;;;15.90;99.90;;;-144.05;60.14;56884.94;5015700;28;20029;-77
2023/05/15 08:27:28;;;;;;;56.08;39.58;;;16.00;99.90;;;-144.05;59.90;56857.34;5014825;28;20108;-79
2023/05/15 08:29:54;;;;;;;55.67;37.17;;;16.20;99.90;;;-144.05;59.47;56897.69;5013565;28;20375;-79
2023/05/15 08:32:20;;;;;;;55.88;38.42;;;16.10;99.90;;;-144.05;59.21;56870.06;5014259;28;20033;-76
2023/05/15 08:34:46;;;;;;;52.58;37.85;;;16.30;99.90;;;-144.05;58.07;56904.06;5014862;28;20091;-77
2023/05/15 08:37:13;;;;;;;50.70;35.42;;;16.70;99.90;;;-144.05;56.67;56884.94;5015130;28;20343;-78
2023/05/15 08:39:39;;;;;;;48.45;33.83;;;17.00;99.90;;;-144.05;55.48;56880.69;5015708;28;20057;-75
2023/05/15 08:42:17;;;;;;;48.05;34.55;;;17.10;99.90;;;-144.05;55.97;56906.19;5014785;28;20517;-77
2023/05/15 08:44:45;;;;;;;45.38;33.78;;;17.20;99.90;;;-144.05;55.67;56910.44;5014714;28;20034;-75
2023/05/15 08:47:13;;;;;;;53.28;34.47;;;17.00;99.90;;;-144.05;55.31;56884.94;5014263;28;20426;-75
2023/05/15 08:50:13;;;;;;;47.70;34.10;;;17.00;99.90;;;-144.05;55.99;56887.06;5014853;28;20025;-77
2023/05/15 08:52:46;;;;;;;46.33;32.35;;;17.00;99.90;;;-144.05;56.04;56891.31;4998092;28;20030;-78
2023/05/15 08:55:16;;;;;;;51.95;33.58;;;17.20;99.90;;;-144.05;54.36;56893.44;5015264;28;20026;-79
2023/05/15 08:57:44;;;;;;;42.72;29.40;;;17.50;99.90;;;-144.05;53.45;56929.53;5013699;28;20026;-78
2023/05/15 09:00:13;;;;;;;39.83;28.92;;;17.60;99.90;;;-144.05;53.72;56921.06;5015196;28;20022;-76
2023/05/15 09:02:41;;;;;;;43.65;30.15;;;17.80;99.90;;;-144.05;52.58;56912.56;5014452;28;20033;-77
2023/05/15 09:05:09;;;;;;;41.90;30.48;;;18.00;99.90;;;-144.05;54.24;56882.81;4996832;28;20036;-75
2023/05/15 09:07:39;;;;;;;38.25;28.05;;;17.80;99.90;;;-144.05;54.21;56901.94;5014460;28;20500;-77
2023/05/15 09:10:07;;;;;;;37.28;29.10;;;18.30;99.90;;;-144.05;51.88;56916.81;4997208;28;20128;-76
2023/05/15 09:12:40;;;;;;;39.28;29.45;;;18.70;99.90;;;-144.05;53.64;56884.94;4996442;28;20038;-77
2023/05/15 09:15:14;;;;;;;34.03;26.73;;;18.90;99.90;;;-144.05;51.17;56912.56;5014141;28;20374;-76
2023/05/15 09:17:41;;;;;;;30.38;25.40;;;19.20;99.90;;;-144.05;50.60;56921.06;5013473;28;20425;-77
2023/05/15 09:20:32;;;;;;;32.67;24.90;;;19.80;99.90;;;-144.05;48.11;56918.94;4997800;28;20030;-79
2023/05/15 09:23:03;;;;;;;29.48;23.95;;;19.70;99.90;;;-144.05;47.37;56955.03;4997674;28;20033;-78
2023/05/15 09:25:39;;;;;;;28.73;22.73;;;19.80;99.90;;;-144.05;47.45;56938.03;5016018;28;20033;-79
2023/05/15 09:28:09;;;;;;;29.33;22.73;;;20.10;99.90;;;-144.05;45.77;56946.53;4997840;28;20030;-77
2023/05/15 09:30:42;;;;;;;25.83;20.75;;;20.40;99.90;;;-144.05;46.43;56955.03;5014868;28;20022;-77
2023/05/15 09:33:08;;;;;;;28.77;22.05;;;20.30;99.90;;;-144.05;46.54;56938.03;5014875;28;20026;-76
2023/05/15 09:35:39;;;;;;;22.48;19.02;;;20.50;99.90;;;-144.05;46.90;56940.16;5014328;28;20113;-79
2023/05/15 09:38:11;;;;;;;21.73;17.13;;;20.30;99.90;;;-144.05;46.75;56918.94;5014738;28;20048;-75
2023/05/15 09:40:42;;;;;;;23.75;18.05;;;20.40;99.90;;;-144.05;45.33;56925.28;5013763;28;20045;-77
2023/05/15 09:43:13;;;;;;;20.83;16.00;;;20.70;99.90;;;-144.05;44.86;56952.91;5014046;28;20026;-78
2023/05/15 09:45:39;;;;;;;19.23;14.98;;;20.90;99.90;;;-144.05;44.13;56965.66;5013910;28;20062;-79
2023/05/15 09:48:07;;;;;;;16.75;13.13;;;21.30;99.90;;;-144.05;42.76;56935.91;5014460;28;20037;-77
2023/05/15 09:50:37;;;;;;;15.02;13.40;;;21.60;99.90;;;-144.05;41.26;56952.91;5014454;28;20115;-79
2023/05/15 09:53:04;;;;;;;18.17;14.18;;;21.60;99.90;;;-144.05;40.87;56965.66;5013160;28;20041;-76
2023/05/15 09:55:35;;;;;;;15.75;13.82;;;21.70;99.90;;;-144.05;40.33;56989.00;5012387;28;20091;-76
2023/05/15 09:58:14;;;;;;;19.60;15.18;;;22.00;99.90;;;-144.05;39.49;56974.16;5013493;28;20056;-78
2023/05/15 10:00:43;;;;;;;18.80;14.60;;;21.80;99.90;;;-144.05;39.86;56955.03;5014126;28;20087;-77